Terminal Aerodrome Forecast
Issued by NWS

Current Version | Previous Version | Text Only | Print | Product List | Glossary On
Versions: 1 2 3 4 5 6 7 8 9 10 11 12 13 14 15 16 17 18 19 20 21 22 23 24 25 26 27 28 29 30 31 32 33
000
FTAK31 PANC 302143 AAA
TAFAVD
TAF AMD
PAVD 302143Z 3022/3118 08015G25KT P6SM SCT090 SCT120 BKN250
      TEMPO 3022/3024 08010G35KT
     FM310300 07010G20KT P6SM SCT150
     FM311400 07020G32KT P6SM BKN100
      AMD LTD TO CLD VIS AND WIND=

USA.gov is the U.S. government's official web portal to all federal, state and local government web resources and services.